VNKT Airport Information

Runway Information
Runway 02 Length 10007 ft width 148 ft
Elevation 4313 ft Threshold 0 ft Heading 22
Runway 20 Length 10007 ft Width 148 ft
Elevation 4387 ft Threshold 400 ft Heading 202
Airport Frequencies
Type APP Name KATHMANDU Frequency 120.6 MHZ
Type ATIS Name KATHMANDU Frequency 112.3 MHZ
Type GND Name KATHMANDU Frequency 121.9 MHZ
Type RDO Name KATHMANDU Frequency 292.3 MHZ
Type TWR Name KATHMANDU Frequency 118.1 MHZ
Airport Navaids
Type NDB Name Kathmandu Frequency 318 KHZ
Type VOR-DME Name Kathmandu Frequency 112300 KHZ
Type NDB Name Nalinchowk Frequency 252 KHZ
Airport Weather Information & NOTAM
ADDS - METARS form results

(1950 UTC 16 July 2018)
 
METAR text: VNKT 161950Z 20003KT 8000 FEW015 SCT030 BKN100 23/22 Q1008 NOSIG
Conditions at: VNKT (KATHMANDU INTL A, NP) observed 1950 UTC 16 July 2018
Temperature: 23.0°C (73°F)
Dewpoint: 22.0°C (72°F) [RH = 94%]
Pressure (altimeter): 29.76 inches Hg (1008.0 mb)
Winds: from the SSW (200 degrees) at 3 MPH (3 knots; 1.6 m/s)
Visibility: 5 miles (8 km)
Ceiling: 10000 feet AGL
Clouds: few clouds at 1500 feet AGL
scattered clouds at 3000 feet AGL
broken clouds at 10000 feet AGL
Weather: no significant weather observed at this time